createdAt,value
2022-10-09T00:01:19.576Z,10.55
2022-10-09T00:03:48.211Z,12.57
2022-10-09T00:06:20.353Z,8.32
2022-10-09T00:08:47.798Z,9.43
2022-10-09T00:11:20.046Z,13.50
2022-10-09T00:13:47.248Z,9.52
2022-10-09T00:16:15.516Z,10.27
2022-10-09T00:18:43.110Z,6.95
2022-10-09T00:21:36.022Z,11.95
2022-10-09T00:24:05.069Z,9.23
2022-10-09T00:26:32.732Z,10.18
2022-10-09T00:28:59.810Z,8.68
2022-10-09T00:31:26.326Z,8.77
2022-10-09T00:33:52.980Z,11.38
2022-10-09T00:36:21.968Z,13.27
2022-10-09T00:38:49.343Z,8.75
2022-10-09T00:41:19.142Z,10.35
2022-10-09T00:43:56.666Z,9.88
2022-10-09T00:46:33.548Z,13.23
2022-10-09T00:49:11.130Z,12.13
2022-10-09T00:51:38.382Z,15.27
2022-10-09T00:54:08.791Z,15.80
2022-10-09T00:56:35.436Z,9.27
2022-10-09T00:59:03.251Z,14.98
2022-10-09T01:01:29.785Z,11.32
2022-10-09T01:03:56.281Z,13.68
2022-10-09T01:06:34.926Z,13.30
2022-10-09T01:09:15.367Z,11.20
2022-10-09T01:11:55.778Z,8.73
2022-10-09T01:14:49.864Z,11.82
2022-10-09T01:17:53.424Z,12.55
2022-10-09T01:20:36.541Z,13.32
2022-10-09T01:23:33.816Z,13.13
2022-10-09T01:26:17.720Z,10.93
2022-10-09T01:28:49.388Z,13.93
2022-10-09T01:31:18.336Z,15.90
2022-10-09T01:33:46.418Z,9.65
2022-10-09T01:36:15.799Z,12.65
2022-10-09T01:38:44.174Z,11.52
2022-10-09T01:41:11.129Z,10.20
2022-10-09T01:43:37.682Z,11.82
2022-10-09T01:46:39.778Z,12.85
2022-10-09T01:49:15.742Z,9.05
2022-10-09T01:52:00.323Z,16.63
2022-10-09T01:54:37.559Z,9.38
2022-10-09T01:57:08.263Z,13.40
2022-10-09T01:59:39.738Z,15.68
2022-10-09T02:02:07.731Z,17.40
2022-10-09T02:04:37.032Z,10.70
2022-10-09T02:07:05.641Z,9.90
2022-10-09T02:09:34.102Z,11.80
2022-10-09T02:12:06.851Z,8.23
2022-10-09T02:14:35.074Z,10.48
2022-10-09T02:17:07.583Z,7.22
2022-10-09T02:19:54.881Z,12.55
2022-10-09T02:22:28.736Z,12.45
2022-10-09T02:24:57.969Z,12.38
2022-10-09T02:27:24.932Z,9.13
2022-10-09T02:29:53.018Z,13.15
2022-10-09T02:32:20.187Z,12.70
2022-10-09T02:34:46.705Z,15.00
2022-10-09T02:37:13.239Z,12.20
2022-10-09T02:39:39.849Z,10.27
2022-10-09T02:42:06.332Z,12.63
2022-10-09T02:44:32.839Z,11.50
2022-10-09T02:46:59.320Z,16.25
2022-10-09T02:49:25.819Z,11.27
2022-10-09T02:51:52.368Z,10.38
2022-10-09T02:54:18.890Z,13.35
2022-10-09T02:56:45.508Z,13.77
2022-10-09T02:59:12.101Z,9.52
2022-10-09T03:01:38.739Z,13.30
2022-10-09T03:04:05.350Z,11.10
2022-10-09T03:06:32.883Z,10.25
2022-10-09T03:08:59.354Z,12.82
2022-10-09T03:11:26.483Z,10.48
2022-10-09T03:13:54.488Z,11.27
2022-10-09T03:16:23.371Z,10.40
2022-10-09T03:18:51.381Z,9.52
2022-10-09T03:21:23.581Z,11.90
2022-10-09T03:23:50.750Z,11.15
2022-10-09T03:26:20.072Z,9.52
2022-10-09T03:28:48.552Z,11.43
2022-10-09T03:31:39.231Z,17.15
2022-10-09T03:34:03.383Z,11.50
2022-10-09T03:36:29.974Z,9.18
2022-10-09T03:38:56.432Z,10.20
2022-10-09T03:41:22.909Z,10.15
2022-10-09T03:43:49.423Z,10.43
2022-10-09T03:46:15.989Z,11.98
2022-10-09T03:48:42.467Z,10.75
2022-10-09T03:51:08.964Z,10.32
2022-10-09T03:53:35.555Z,10.48
2022-10-09T03:56:02.080Z,9.77
2022-10-09T03:58:28.559Z,9.68
2022-10-09T04:00:55.198Z,11.27
2022-10-09T04:03:24.782Z,10.18
2022-10-09T04:05:51.244Z,9.90
2022-10-09T04:08:17.736Z,15.13
2022-10-09T04:10:44.773Z,12.45
2022-10-09T04:13:11.291Z,7.97
2022-10-09T04:15:37.843Z,11.13
2022-10-09T04:18:05.216Z,12.07
2022-10-09T04:20:32.230Z,11.35
2022-10-09T04:22:58.829Z,9.07
2022-10-09T04:25:25.319Z,7.70
2022-10-09T04:27:51.797Z,9.57
2022-10-09T04:30:18.410Z,15.63
2022-10-09T04:32:44.928Z,12.27
2022-10-09T04:35:11.418Z,11.23
2022-10-09T04:37:37.907Z,10.10
2022-10-09T04:40:05.042Z,9.32
2022-10-09T04:42:31.534Z,8.88
2022-10-09T04:44:58.215Z,11.82
2022-10-09T04:47:24.710Z,14.55
2022-10-09T04:49:51.160Z,9.48
2022-10-09T04:52:17.670Z,8.40
2022-10-09T04:54:44.110Z,9.27
2022-10-09T04:57:10.608Z,13.57
2022-10-09T04:59:37.068Z,6.40
2022-10-09T05:02:04.014Z,7.97
2022-10-09T05:04:30.789Z,7.57
2022-10-09T05:06:57.244Z,10.43
2022-10-09T05:09:26.928Z,6.88
2022-10-09T05:11:53.562Z,10.20
2022-10-09T05:14:20.087Z,10.45
2022-10-09T05:17:12.477Z,9.13
2022-10-09T05:19:36.586Z,11.75
2022-10-09T05:22:03.062Z,9.25
2022-10-09T05:24:29.605Z,11.32
2022-10-09T05:26:56.070Z,10.68
2022-10-09T05:29:22.651Z,10.27
2022-10-09T05:31:49.733Z,9.85
2022-10-09T05:34:16.533Z,9.25
2022-10-09T05:36:43.049Z,11.98
2022-10-09T05:39:09.695Z,6.70
2022-10-09T05:41:36.235Z,10.63
2022-10-09T05:44:03.866Z,9.25
2022-10-09T05:46:30.640Z,9.82
2022-10-09T05:49:05.478Z,9.63
2022-10-09T05:51:37.961Z,10.10
2022-10-09T05:54:05.744Z,8.80
2022-10-09T05:56:35.225Z,8.05
2022-10-09T05:59:14.801Z,10.80
2022-10-09T06:01:44.180Z,12.27
2022-10-09T06:04:20.463Z,14.45
2022-10-09T06:06:48.491Z,7.90
2022-10-09T06:09:22.033Z,9.25
2022-10-09T06:11:50.800Z,13.00
2022-10-09T06:14:17.438Z,9.10
2022-10-09T06:16:45.475Z,8.55
2022-10-09T06:19:14.511Z,13.52
2022-10-09T06:21:41.839Z,9.82
2022-10-09T06:24:12.034Z,12.40
2022-10-09T06:26:41.935Z,7.28
2022-10-09T06:29:09.254Z,10.00
2022-10-09T06:31:35.897Z,10.50
2022-10-09T06:34:03.349Z,10.30
2022-10-09T06:36:33.114Z,9.00
2022-10-09T06:39:01.158Z,7.25
2022-10-09T06:41:29.560Z,10.95
2022-10-09T06:44:04.207Z,10.50
2022-10-09T06:46:36.607Z,9.82
2022-10-09T06:49:03.961Z,12.73
2022-10-09T06:51:30.969Z,10.70
2022-10-09T06:53:59.879Z,13.60
2022-10-09T06:56:29.054Z,16.48
2022-10-09T06:58:55.805Z,10.20
2022-10-09T07:01:27.175Z,14.13
2022-10-09T07:03:59.209Z,12.55
2022-10-09T07:09:00.095Z,13.02
2022-10-09T07:11:29.077Z,14.02
2022-10-09T07:13:58.401Z,10.00
2022-10-09T07:16:31.526Z,14.55
2022-10-09T07:19:00.360Z,10.02
2022-10-09T07:21:27.192Z,11.82
2022-10-09T07:23:56.632Z,7.57
2022-10-09T07:26:26.410Z,9.10
2022-10-09T07:28:53.757Z,9.00
2022-10-09T07:31:20.718Z,9.68
2022-10-09T07:33:48.598Z,10.05
2022-10-09T07:36:15.259Z,10.10
2022-10-09T07:38:41.946Z,11.18
2022-10-09T07:41:11.275Z,10.32
2022-10-09T07:43:39.681Z,10.55
2022-10-09T07:46:09.897Z,9.68
2022-10-09T07:48:37.239Z,7.50
2022-10-09T07:51:15.120Z,8.27
2022-10-09T07:53:41.731Z,9.65
2022-10-09T07:56:14.560Z,9.00
2022-10-09T07:58:41.880Z,14.32
2022-10-09T08:01:09.091Z,13.20
2022-10-09T08:03:36.596Z,15.73
2022-10-09T08:06:03.854Z,10.20
2022-10-09T08:08:30.530Z,10.82
2022-10-09T08:10:56.966Z,10.82
2022-10-09T08:13:23.465Z,13.07
2022-10-09T08:15:50.168Z,14.13
2022-10-09T08:18:16.846Z,9.80
2022-10-09T08:20:43.378Z,12.38
2022-10-09T08:23:09.864Z,10.98
2022-10-09T08:25:37.373Z,9.02
2022-10-09T08:28:04.694Z,10.93
2022-10-09T08:30:31.357Z,7.72
2022-10-09T08:32:57.819Z,6.30
2022-10-09T08:35:24.284Z,10.43
2022-10-09T08:37:50.814Z,11.50
2022-10-09T08:40:24.226Z,8.77
2022-10-09T08:43:02.195Z,8.82
2022-10-09T08:45:31.211Z,7.57
2022-10-09T08:48:06.512Z,11.77
2022-10-09T08:50:37.987Z,13.25
2022-10-09T08:53:18.668Z,7.57
2022-10-09T08:55:55.988Z,6.13
2022-10-09T08:58:26.777Z,8.05
2022-10-09T09:00:58.732Z,8.80
2022-10-09T09:06:55.094Z,8.90
2022-10-09T09:09:43.464Z,8.82
2022-10-09T09:12:34.159Z,11.02
2022-10-09T09:15:10.069Z,11.68
2022-10-09T09:17:42.661Z,15.32
2022-10-09T09:20:39.880Z,5.70
2022-10-09T09:23:12.598Z,8.13
2022-10-09T09:25:42.218Z,14.90
2022-10-09T09:28:17.876Z,9.63
2022-10-09T09:30:51.802Z,9.32
2022-10-09T09:33:35.868Z,7.10
2022-10-09T09:36:09.843Z,9.57
2022-10-09T09:38:47.813Z,8.82
2022-10-09T09:41:20.899Z,9.02
2022-10-09T09:43:47.417Z,8.27
2022-10-09T09:46:23.932Z,7.60
2022-10-09T09:48:50.477Z,9.00
2022-10-09T09:51:29.559Z,7.80
2022-10-09T09:54:00.733Z,9.27
2022-10-09T09:57:10.493Z,8.23
2022-10-09T09:59:43.954Z,10.52
2022-10-09T10:02:13.185Z,8.83
2022-10-09T10:04:55.470Z,8.80
2022-10-09T10:10:13.210Z,8.73
2022-10-09T10:12:45.382Z,7.22
2022-10-09T10:15:30.228Z,7.18
2022-10-09T10:18:06.686Z,11.50
2022-10-09T10:20:43.331Z,7.07
2022-10-09T10:23:25.349Z,10.23
2022-10-09T10:25:57.990Z,10.20
2022-10-09T10:28:35.763Z,10.93
2022-10-09T10:31:06.731Z,11.75
2022-10-09T10:33:37.469Z,11.55
2022-10-09T10:36:05.073Z,8.05
2022-10-09T10:38:45.168Z,12.10
2022-10-09T10:41:21.052Z,16.60
2022-10-09T10:43:59.445Z,8.60
2022-10-09T10:46:31.166Z,7.22
2022-10-09T10:49:00.131Z,10.45
2022-10-09T10:51:43.044Z,8.77
2022-10-09T10:54:40.662Z,9.82
2022-10-09T10:57:20.929Z,6.32
2022-10-09T11:00:05.579Z,7.72
2022-10-09T11:02:32.959Z,9.73
2022-10-09T11:05:09.444Z,8.45
2022-10-09T11:08:46.581Z,6.32
2022-10-09T11:11:13.061Z,7.45
2022-10-09T11:14:03.632Z,8.10
2022-10-09T11:17:08.062Z,9.48
2022-10-09T11:20:07.550Z,6.30
2022-10-09T11:23:03.554Z,6.88
2022-10-09T11:26:08.384Z,5.35
2022-10-09T11:28:56.673Z,12.05
2022-10-09T11:31:32.526Z,8.23
2022-10-09T11:34:04.274Z,5.15
2022-10-09T11:36:44.758Z,9.25
2022-10-09T11:39:16.042Z,10.70
2022-10-09T11:41:46.642Z,8.48
2022-10-09T11:44:50.743Z,7.55
2022-10-09T11:47:30.821Z,5.78
2022-10-09T11:50:51.386Z,7.00
2022-10-09T11:53:22.613Z,5.15
2022-10-09T11:55:49.234Z,4.78
2022-10-09T11:58:18.677Z,6.60
2022-10-09T12:00:47.939Z,8.38
2022-10-09T12:03:35.991Z,5.35
2022-10-09T12:06:04.193Z,4.07
2022-10-09T12:08:30.834Z,8.65
2022-10-09T12:11:09.384Z,6.75
2022-10-09T12:13:45.111Z,8.93
2022-10-09T12:16:29.545Z,5.95
2022-10-09T12:18:58.134Z,7.15
2022-10-09T12:21:29.140Z,6.38
2022-10-09T12:23:55.906Z,6.70
2022-10-09T12:26:25.028Z,7.50
2022-10-09T12:28:55.319Z,6.88
2022-10-09T12:31:21.946Z,6.20
2022-10-09T12:33:54.739Z,5.38
2022-10-09T12:36:27.695Z,7.45
2022-10-09T12:38:54.840Z,5.50
2022-10-09T12:41:31.688Z,7.55
2022-10-09T12:43:58.835Z,6.32
2022-10-09T12:46:39.282Z,4.22
2022-10-09T12:49:16.498Z,7.13
2022-10-09T12:51:53.766Z,4.70
2022-10-09T12:54:25.076Z,4.80
2022-10-09T12:56:56.834Z,8.65
2022-10-09T12:59:25.710Z,4.32
2022-10-09T13:01:57.893Z,6.70
2022-10-09T13:04:33.073Z,5.22
2022-10-09T13:07:05.667Z,6.35
2022-10-09T13:09:37.786Z,4.38
2022-10-09T13:12:23.097Z,6.25
2022-10-09T13:15:04.822Z,6.82
2022-10-09T13:20:16.132Z,4.03
2022-10-09T13:23:04.125Z,6.75
2022-10-09T13:25:37.127Z,4.78
2022-10-09T13:28:04.499Z,6.95
2022-10-09T13:30:31.276Z,4.57
2022-10-09T13:32:57.899Z,8.73
2022-10-09T13:35:24.572Z,5.22
2022-10-09T13:37:51.323Z,4.53
2022-10-09T13:40:21.704Z,4.70
2022-10-09T13:43:02.494Z,5.88
2022-10-09T13:45:29.010Z,5.85
2022-10-09T13:47:55.468Z,5.90
2022-10-09T13:50:22.268Z,4.78
2022-10-09T13:52:49.037Z,4.90
2022-10-09T13:55:15.795Z,9.02
2022-10-09T13:57:42.297Z,3.05
2022-10-09T14:00:09.611Z,2.92
2022-10-09T14:02:36.422Z,3.03
2022-10-09T14:05:03.202Z,6.25
2022-10-09T14:07:30.376Z,6.88
2022-10-09T14:09:57.470Z,8.07
2022-10-09T14:12:24.103Z,4.13
2022-10-09T14:14:50.561Z,8.75
2022-10-09T14:17:17.070Z,3.75
2022-10-09T14:19:43.564Z,2.70
2022-10-09T14:22:10.224Z,6.47
2022-10-09T14:24:37.703Z,4.40
2022-10-09T14:27:04.263Z,5.80
2022-10-09T14:29:30.858Z,3.78
2022-10-09T14:31:57.421Z,6.00
2022-10-09T14:34:23.959Z,6.50
2022-10-09T14:36:50.513Z,3.70
2022-10-09T14:39:17.246Z,5.43
2022-10-09T14:41:43.702Z,4.75
2022-10-09T14:44:10.998Z,3.25
2022-10-09T14:46:39.164Z,3.53
2022-10-09T14:49:07.952Z,4.00
2022-10-09T14:51:37.489Z,2.92
2022-10-09T14:54:05.511Z,5.25
2022-10-09T14:56:32.433Z,3.03
2022-10-09T14:59:01.005Z,2.13
2022-10-09T15:01:29.404Z,4.10
2022-10-09T15:03:56.133Z,5.55
2022-10-09T15:06:25.499Z,4.68
2022-10-09T15:08:55.992Z,2.88
2022-10-09T15:11:23.029Z,4.07
2022-10-09T15:13:49.547Z,5.70
2022-10-09T15:16:18.635Z,3.35
2022-10-09T15:18:46.558Z,4.45
2022-10-09T15:21:15.659Z,4.88
2022-10-09T15:23:42.557Z,2.60
2022-10-09T15:26:10.101Z,3.33
2022-10-09T15:28:38.851Z,5.72
2022-10-09T15:31:07.480Z,7.05
2022-10-09T15:33:33.995Z,4.53
2022-10-09T15:36:00.679Z,3.63
2022-10-09T15:38:27.160Z,8.32
2022-10-09T15:40:55.837Z,2.75
2022-10-09T15:43:24.834Z,6.57
2022-10-09T15:45:54.078Z,3.78
2022-10-09T15:48:23.532Z,13.25
2022-10-09T15:50:50.576Z,5.90
2022-10-09T15:53:18.907Z,5.88
2022-10-09T15:55:47.250Z,3.80
2022-10-09T15:58:14.777Z,6.82
2022-10-09T16:00:44.992Z,3.58
2022-10-09T16:03:11.479Z,5.35
2022-10-09T16:05:39.330Z,2.90
2022-10-09T16:08:07.285Z,4.00
2022-10-09T16:10:33.979Z,2.72
2022-10-09T16:13:00.588Z,6.53
2022-10-09T16:15:27.053Z,6.65
2022-10-09T16:17:54.389Z,4.50
2022-10-09T16:20:20.845Z,4.72
2022-10-09T16:22:47.641Z,8.38
2022-10-09T16:25:14.504Z,5.18
2022-10-09T16:27:40.993Z,5.18
2022-10-09T16:30:08.430Z,4.60
2022-10-09T16:32:36.140Z,15.48
2022-10-09T16:35:02.661Z,5.47
2022-10-09T16:37:29.522Z,4.53
2022-10-09T16:39:56.000Z,3.97
2022-10-09T16:42:22.524Z,6.15
2022-10-09T16:44:51.422Z,7.05
2022-10-09T16:47:18.872Z,4.10
2022-10-09T16:49:45.415Z,6.50
2022-10-09T16:52:11.885Z,5.95
2022-10-09T16:54:39.383Z,7.22
2022-10-09T16:57:07.009Z,8.52
2022-10-09T16:59:33.874Z,9.60
2022-10-09T17:02:04.117Z,15.07
2022-10-09T17:04:31.000Z,14.35
2022-10-09T17:06:57.569Z,17.48
2022-10-09T17:09:24.177Z,17.17
2022-10-09T17:11:50.637Z,19.80
2022-10-09T17:14:17.195Z,13.35
2022-10-09T17:16:43.815Z,14.98
2022-10-09T17:19:10.827Z,15.35
2022-10-09T17:21:37.389Z,9.57
2022-10-09T17:24:05.051Z,7.63
2022-10-09T17:26:34.742Z,7.32
2022-10-09T17:29:02.541Z,11.68
2022-10-09T17:31:29.395Z,16.45
2022-10-09T17:33:59.702Z,15.05
2022-10-09T17:36:28.991Z,14.23
2022-10-09T17:38:55.962Z,14.55
2022-10-09T17:41:24.020Z,15.60
2022-10-09T17:43:52.585Z,16.42
2022-10-09T17:46:19.975Z,14.82
2022-10-09T17:48:52.896Z,19.55
2022-10-09T17:51:25.570Z,13.38
2022-10-09T17:53:53.014Z,15.35
2022-10-09T17:56:20.013Z,16.60
2022-10-09T17:58:50.158Z,11.90
2022-10-09T18:01:17.626Z,14.30
2022-10-09T18:03:44.820Z,15.20
2022-10-09T18:06:15.555Z,15.18
2022-10-09T18:08:42.451Z,14.88
2022-10-09T18:11:16.440Z,12.68
2022-10-09T18:13:44.330Z,10.45
2022-10-09T18:16:19.471Z,9.63
2022-10-09T18:18:46.433Z,7.93
2022-10-09T18:21:16.989Z,11.25
2022-10-09T18:23:45.386Z,6.90
2022-10-09T18:26:14.755Z,6.45
2022-10-09T18:28:43.552Z,5.40
2022-10-09T18:31:15.291Z,8.02
2022-10-09T18:33:42.716Z,6.05
2022-10-09T18:36:18.188Z,6.20
2022-10-09T18:38:49.077Z,5.15
2022-10-09T18:41:16.717Z,5.70
2022-10-09T18:43:43.283Z,4.97
2022-10-09T18:46:10.209Z,8.70
2022-10-09T18:48:39.615Z,10.45
2022-10-09T18:51:09.008Z,5.68
2022-10-09T18:53:37.959Z,6.03
2022-10-09T18:56:07.275Z,9.98
2022-10-09T18:58:35.619Z,6.25
2022-10-09T19:01:07.246Z,4.95
2022-10-09T19:03:36.695Z,8.98
2022-10-09T19:06:04.732Z,6.63
2022-10-09T19:08:32.586Z,8.45
2022-10-09T19:11:00.459Z,8.15
2022-10-09T19:13:27.206Z,7.70
2022-10-09T19:15:58.331Z,10.73
2022-10-09T19:18:26.454Z,7.70
2022-10-09T19:20:53.588Z,8.80
2022-10-09T19:23:20.215Z,8.95
2022-10-09T19:25:52.416Z,8.35
2022-10-09T19:28:22.018Z,6.50
2022-10-09T19:30:48.508Z,9.25
2022-10-09T19:33:15.441Z,6.60
2022-10-09T19:35:49.941Z,8.40
2022-10-09T19:38:17.617Z,8.65
2022-10-09T19:40:44.885Z,6.57
2022-10-09T19:43:12.717Z,14.18
2022-10-09T19:45:39.292Z,6.35
2022-10-09T19:48:06.273Z,10.13
2022-10-09T19:50:33.246Z,8.63
2022-10-09T19:53:03.127Z,8.85
2022-10-09T19:55:33.254Z,7.50
2022-10-09T19:58:00.431Z,8.70
2022-10-09T20:00:27.852Z,10.02
2022-10-09T20:02:54.413Z,12.38
2022-10-09T20:05:21.482Z,8.15
2022-10-09T20:07:48.065Z,8.02
2022-10-09T20:10:14.929Z,7.50
2022-10-09T20:12:41.473Z,8.77
2022-10-09T20:15:08.757Z,11.85
2022-10-09T20:17:35.315Z,7.00
2022-10-09T20:20:04.519Z,8.73
2022-10-09T20:22:31.018Z,9.02
2022-10-09T20:24:57.518Z,7.43
2022-10-09T20:27:23.989Z,8.13
2022-10-09T20:29:52.734Z,8.63
2022-10-09T20:32:21.144Z,9.93
2022-10-09T20:34:47.671Z,9.48
2022-10-09T20:37:14.103Z,10.07
2022-10-09T20:39:40.682Z,10.65
2022-10-09T20:42:07.343Z,9.60
2022-10-09T20:44:33.909Z,8.25
2022-10-09T20:47:00.402Z,9.07
2022-10-09T20:49:26.973Z,8.60
2022-10-09T20:51:53.557Z,8.48
2022-10-09T20:54:21.807Z,9.57
2022-10-09T20:56:48.904Z,8.45
2022-10-09T20:59:16.165Z,11.75
2022-10-09T21:01:43.155Z,8.32
2022-10-09T21:04:11.579Z,9.95
2022-10-09T21:06:38.630Z,11.50
2022-10-09T21:09:05.104Z,8.63
2022-10-09T21:11:38.961Z,10.48
2022-10-09T21:14:05.672Z,8.77
2022-10-09T21:16:32.236Z,10.18
2022-10-09T21:19:02.437Z,11.35
2022-10-09T21:21:29.535Z,9.43
2022-10-09T21:23:58.158Z,7.57
2022-10-09T21:26:27.213Z,8.10
2022-10-09T21:28:58.445Z,8.73
2022-10-09T21:31:28.542Z,7.07
2022-10-09T21:33:55.584Z,11.20
2022-10-09T21:37:02.322Z,11.05
2022-10-09T21:39:30.867Z,11.27
2022-10-09T21:41:57.376Z,9.90
2022-10-09T21:44:23.928Z,8.75
2022-10-09T21:46:50.374Z,7.05
2022-10-09T21:49:21.149Z,12.85
2022-10-09T21:51:48.317Z,7.95
2022-10-09T21:54:14.865Z,13.05
2022-10-09T21:56:41.389Z,16.77
2022-10-09T21:59:08.198Z,14.15
2022-10-09T22:01:34.840Z,13.18
2022-10-09T22:04:01.507Z,11.63
2022-10-09T22:06:27.949Z,10.90
2022-10-09T22:08:54.435Z,11.18
2022-10-09T22:11:20.920Z,12.20
2022-10-09T22:13:47.527Z,10.05
2022-10-09T22:16:15.671Z,7.55
2022-10-09T22:18:45.452Z,11.02
2022-10-09T22:21:14.817Z,11.32
2022-10-09T22:23:41.923Z,12.27
2022-10-09T22:26:12.752Z,8.15
2022-10-09T22:28:39.536Z,7.25
2022-10-09T22:31:07.687Z,9.15
2022-10-09T22:33:35.510Z,13.25
2022-10-09T22:36:04.572Z,9.15
2022-10-09T22:38:31.111Z,7.90
2022-10-09T22:41:08.687Z,12.70
2022-10-09T22:43:36.095Z,7.47
2022-10-09T22:46:15.281Z,8.55
2022-10-09T22:48:43.969Z,6.72
2022-10-09T22:51:12.916Z,8.73
2022-10-09T22:53:40.110Z,9.10
2022-10-09T22:56:09.105Z,8.55
2022-10-09T22:58:35.677Z,12.65
2022-10-09T23:01:08.798Z,7.55
2022-10-09T23:03:35.906Z,8.93
2022-10-09T23:06:13.445Z,5.45
2022-10-09T23:08:41.739Z,12.57
2022-10-09T23:11:08.841Z,10.27
2022-10-09T23:13:35.390Z,9.90
2022-10-09T23:16:07.210Z,7.63
2022-10-09T23:18:34.536Z,8.23
2022-10-09T23:21:14.887Z,10.02
2022-10-09T23:23:42.434Z,8.13
2022-10-09T23:26:12.193Z,7.80
2022-10-09T23:28:39.097Z,6.03
2022-10-09T23:31:11.596Z,8.80
2022-10-09T23:33:39.761Z,7.78
2022-10-09T23:36:27.217Z,9.43
2022-10-09T23:38:54.523Z,7.25
2022-10-09T23:41:24.756Z,9.75
2022-10-09T23:43:52.290Z,8.10
2022-10-09T23:46:22.202Z,9.85
2022-10-09T23:48:49.814Z,10.55
2022-10-09T23:51:18.115Z,8.10
2022-10-09T23:53:44.731Z,8.98
2022-10-09T23:56:26.015Z,6.93
2022-10-09T23:58:53.713Z,6.30
